createdAt,value
2018-11-10T00:00:16.201Z,180.50
2018-11-10T00:01:16.216Z,166.00
2018-11-10T00:02:16.243Z,168.60
2018-11-10T00:03:16.254Z,161.30
2018-11-10T00:04:16.307Z,168.20
2018-11-10T00:05:16.282Z,166.50
2018-11-10T00:06:16.295Z,166.40
2018-11-10T00:07:16.309Z,157.40
2018-11-10T00:08:16.364Z,158.00
2018-11-10T00:09:16.353Z,176.90
2018-11-10T00:10:16.362Z,159.50
2018-11-10T00:11:16.379Z,163.30
2018-11-10T00:12:16.389Z,172.40
2018-11-10T00:13:16.405Z,158.10
2018-11-10T00:14:16.416Z,163.00
2018-11-10T00:15:16.431Z,169.20
2018-11-10T00:16:16.443Z,177.90
2018-11-10T00:17:16.457Z,165.20
2018-11-10T00:18:16.482Z,169.20
2018-11-10T00:19:16.496Z,164.30
2018-11-10T00:20:16.510Z,168.60
2018-11-10T00:21:16.523Z,161.40
2018-11-10T00:22:16.536Z,143.90
2018-11-10T00:23:16.551Z,162.40
2018-11-10T00:24:16.564Z,170.70
2018-11-10T00:25:16.589Z,140.30
2018-11-10T00:26:16.608Z,133.00
2018-11-10T00:27:16.616Z,153.20
2018-11-10T00:28:16.632Z,156.70
2018-11-10T00:29:16.643Z,152.80
2018-11-10T00:30:16.663Z,154.20
2018-11-10T00:31:16.671Z,153.20
2018-11-10T00:32:16.696Z,145.40
2018-11-10T00:33:16.710Z,131.80
2018-11-10T00:34:16.725Z,119.30
2018-11-10T00:35:16.741Z,134.40
2018-11-10T00:36:16.751Z,134.20
2018-11-10T00:37:16.765Z,123.40
2018-11-10T00:38:16.778Z,163.20
2018-11-10T00:39:16.791Z,147.50
2018-11-10T00:40:16.808Z,143.90
2018-11-10T00:41:16.831Z,144.40
2018-11-10T00:42:16.845Z,160.70
2018-11-10T00:43:16.861Z,147.30
2018-11-10T00:44:16.872Z,157.60
2018-11-10T00:45:16.897Z,142.20
2018-11-10T00:46:16.899Z,134.90
2018-11-10T00:47:16.911Z,133.60
2018-11-10T00:48:16.927Z,145.80
2018-11-10T00:49:16.940Z,129.10
2018-11-10T00:50:16.965Z,146.50
2018-11-10T00:51:16.978Z,126.70
2018-11-10T00:52:16.993Z,146.90
2018-11-10T00:53:17.006Z,133.30
2018-11-10T00:54:17.018Z,138.10
2018-11-10T00:55:17.036Z,129.10
2018-11-10T00:56:17.046Z,148.40
2018-11-10T00:57:17.060Z,148.10
2018-11-10T00:58:17.089Z,139.00
2018-11-10T00:59:17.099Z,141.70
2018-11-10T01:00:17.122Z,134.70
2018-11-10T01:01:17.126Z,142.00
2018-11-10T01:02:17.140Z,146.40
2018-11-10T01:03:17.153Z,146.00
2018-11-10T01:04:17.167Z,146.30
2018-11-10T01:05:17.179Z,141.50
2018-11-10T01:06:17.195Z,147.30
2018-11-10T01:07:17.208Z,126.90
2018-11-10T01:08:17.233Z,137.90
2018-11-10T01:09:17.247Z,148.20
2018-11-10T01:10:17.273Z,148.90
2018-11-10T01:11:17.274Z,131.60
2018-11-10T01:12:17.287Z,144.30
2018-11-10T01:13:17.305Z,131.20
2018-11-10T01:14:17.315Z,141.60
2018-11-10T01:15:17.329Z,139.20
2018-11-10T01:16:17.341Z,143.40
2018-11-10T01:17:17.367Z,140.40
2018-11-10T01:18:17.369Z,143.00
2018-11-10T01:19:17.396Z,124.50
2018-11-10T01:20:17.409Z,126.10
2018-11-10T01:21:17.421Z,146.50
2018-11-10T01:22:17.436Z,132.50
2018-11-10T01:23:17.451Z,147.50
2018-11-10T01:24:17.463Z,134.70
2018-11-10T01:25:17.478Z,138.00
2018-11-10T01:26:17.491Z,140.20
2018-11-10T01:27:17.503Z,147.70
2018-11-10T01:28:17.518Z,167.50
2018-11-10T01:29:17.531Z,156.80
2018-11-10T01:30:17.571Z,150.10
2018-11-10T01:31:17.570Z,133.20
2018-11-10T01:32:17.595Z,145.10
2018-11-10T01:33:17.600Z,147.10
2018-11-10T01:34:17.610Z,135.60
2018-11-10T01:35:17.626Z,128.80
2018-11-10T01:36:17.637Z,138.70
2018-11-10T01:37:17.650Z,135.40
2018-11-10T01:38:17.664Z,126.80
2018-11-10T01:39:17.679Z,143.00
2018-11-10T01:40:17.692Z,126.10
2018-11-10T01:41:17.706Z,135.90
2018-11-10T01:42:17.719Z,137.70
2018-11-10T01:43:17.745Z,147.70
2018-11-10T01:44:17.758Z,169.50
2018-11-10T01:45:17.789Z,138.30
2018-11-10T01:46:17.785Z,136.70
2018-11-10T01:47:17.802Z,134.60
2018-11-10T01:48:17.813Z,136.60
2018-11-10T01:49:17.825Z,133.00
2018-11-10T01:50:17.839Z,145.20
2018-11-10T01:51:17.852Z,146.20
2018-11-10T01:52:17.871Z,135.50
2018-11-10T01:53:17.881Z,140.10
2018-11-10T01:54:17.893Z,134.50
2018-11-10T01:55:17.908Z,152.30
2018-11-10T01:56:17.922Z,138.20
2018-11-10T01:57:17.935Z,137.70
2018-11-10T01:58:17.972Z,140.00
2018-11-10T01:59:17.978Z,141.10
2018-11-10T02:00:18.003Z,156.60
2018-11-10T02:01:18.003Z,144.30
2018-11-10T02:02:18.014Z,129.00
2018-11-10T02:03:18.028Z,148.70
2018-11-10T02:04:18.041Z,144.00
2018-11-10T02:05:18.057Z,148.50
2018-11-10T02:06:18.068Z,170.40
2018-11-10T02:07:18.082Z,137.50
2018-11-10T02:08:18.096Z,139.80
2018-11-10T02:09:18.111Z,160.40
2018-11-10T02:10:18.122Z,153.50
2018-11-10T02:11:18.137Z,151.30
2018-11-10T02:12:18.163Z,133.30
2018-11-10T02:13:18.164Z,143.00
2018-11-10T02:14:18.178Z,151.70
2018-11-10T02:15:18.202Z,139.00
2018-11-10T02:16:18.218Z,133.90
2018-11-10T02:17:18.229Z,145.10
2018-11-10T02:18:18.247Z,166.90
2018-11-10T02:19:18.257Z,124.40
2018-11-10T02:20:18.272Z,158.60
2018-11-10T02:21:18.284Z,148.10
2018-11-10T02:22:18.298Z,152.90
2018-11-10T02:23:18.310Z,156.80
2018-11-10T02:24:18.325Z,157.80
2018-11-10T02:25:18.350Z,146.00
2018-11-10T02:26:18.352Z,132.10
2018-11-10T02:27:18.364Z,135.00
2018-11-10T02:28:18.380Z,132.20
2018-11-10T02:29:18.391Z,150.10
2018-11-10T02:30:18.408Z,149.20
2018-11-10T02:31:18.419Z,141.40
2018-11-10T02:32:18.436Z,145.10
2018-11-10T02:33:18.447Z,146.50
2018-11-10T02:34:18.471Z,143.70
2018-11-10T02:35:18.487Z,153.80
2018-11-10T02:36:18.499Z,150.00
2018-11-10T02:37:18.513Z,155.00
2018-11-10T02:38:18.539Z,160.80
2018-11-10T02:39:18.541Z,147.80
2018-11-10T02:40:18.554Z,146.80
2018-11-10T02:41:18.568Z,128.50
2018-11-10T02:42:18.580Z,148.20
2018-11-10T02:43:18.595Z,138.90
2018-11-10T02:44:18.613Z,141.30
2018-11-10T02:45:18.625Z,124.50
2018-11-10T02:46:18.638Z,144.70
2018-11-10T02:47:18.651Z,138.80
2018-11-10T02:48:18.662Z,145.10
2018-11-10T02:49:18.676Z,145.40
2018-11-10T02:50:18.692Z,149.50
2018-11-10T02:51:18.703Z,129.10
2018-11-10T02:52:18.728Z,146.50
2018-11-10T02:53:18.731Z,137.20
2018-11-10T02:54:18.743Z,137.70
2018-11-10T02:55:18.759Z,138.00
2018-11-10T02:56:18.770Z,141.20
2018-11-10T02:57:18.784Z,139.00
2018-11-10T02:58:18.797Z,131.50
2018-11-10T02:59:18.822Z,132.20
2018-11-10T03:00:18.838Z,136.10
2018-11-10T03:01:18.850Z,135.10
2018-11-10T03:02:18.864Z,142.00
2018-11-10T03:03:18.881Z,148.30
2018-11-10T03:04:18.894Z,137.90
2018-11-10T03:05:18.918Z,140.50
2018-11-10T03:06:18.920Z,145.60
2018-11-10T03:07:18.931Z,128.50
2018-11-10T03:08:18.945Z,133.90
2018-11-10T03:09:18.958Z,140.90
2018-11-10T03:10:18.972Z,131.80
2018-11-10T03:11:18.985Z,150.60
2018-11-10T03:12:19.002Z,143.70
2018-11-10T03:13:19.013Z,145.20
2018-11-10T03:14:19.027Z,140.60
2018-11-10T03:15:19.039Z,133.10
2018-11-10T03:16:19.072Z,150.50
2018-11-10T03:17:19.066Z,148.10
2018-11-10T03:18:19.081Z,139.40
2018-11-10T03:19:19.106Z,152.60
2018-11-10T03:20:19.108Z,143.00
2018-11-10T03:21:19.121Z,140.70
2018-11-10T03:22:19.137Z,157.90
2018-11-10T03:23:19.147Z,125.70
2018-11-10T03:24:19.162Z,144.20
2018-11-10T03:25:19.175Z,135.50
2018-11-10T03:26:19.189Z,130.40
2018-11-10T03:27:19.203Z,142.00
2018-11-10T03:28:19.216Z,159.20
2018-11-10T03:29:19.229Z,143.20
2018-11-10T03:30:19.261Z,152.40
2018-11-10T03:31:19.258Z,143.90
2018-11-10T03:32:19.296Z,148.60
2018-11-10T03:33:19.296Z,136.60
2018-11-10T03:34:19.308Z,139.90
2018-11-10T03:35:19.322Z,138.30
2018-11-10T03:36:19.335Z,160.70
2018-11-10T03:37:19.350Z,144.90
2018-11-10T03:38:19.364Z,143.30
2018-11-10T03:39:19.378Z,150.40
2018-11-10T03:40:19.390Z,153.30
2018-11-10T03:41:19.404Z,152.80
2018-11-10T03:42:19.417Z,137.50
2018-11-10T03:43:19.432Z,150.30
2018-11-10T03:44:19.444Z,156.50
2018-11-10T03:45:19.459Z,148.70
2018-11-10T03:46:19.477Z,148.40
2018-11-10T03:47:19.485Z,144.40
2018-11-10T03:48:19.498Z,137.20
2018-11-10T03:49:19.515Z,132.60
2018-11-10T03:50:19.526Z,147.70
2018-11-10T03:51:19.539Z,157.50
2018-11-10T03:52:19.553Z,139.00
2018-11-10T03:53:19.574Z,148.20
2018-11-10T03:54:19.580Z,160.30
2018-11-10T03:55:19.597Z,143.70
2018-11-10T03:56:19.606Z,135.10
2018-11-10T03:57:19.621Z,141.80
2018-11-10T03:58:19.633Z,156.20
2018-11-10T03:59:19.649Z,143.20
2018-11-10T04:00:19.662Z,136.90
2018-11-10T04:01:19.680Z,145.10
2018-11-10T04:02:19.688Z,131.10
2018-11-10T04:03:19.701Z,140.80
2018-11-10T04:04:19.729Z,150.20
2018-11-10T04:05:19.729Z,131.40
2018-11-10T04:06:19.743Z,149.10
2018-11-10T04:07:19.768Z,131.70
2018-11-10T04:08:19.781Z,146.30
2018-11-10T04:09:19.797Z,128.80
2018-11-10T04:10:19.809Z,129.10
2018-11-10T04:11:19.822Z,162.50
2018-11-10T04:12:19.837Z,140.00
2018-11-10T04:13:19.861Z,157.80
2018-11-10T04:14:19.863Z,165.10
2018-11-10T04:15:19.881Z,144.20
2018-11-10T04:16:19.893Z,154.20
2018-11-10T04:17:19.916Z,164.60
2018-11-10T04:18:19.917Z,164.10
2018-11-10T04:19:19.930Z,147.20
2018-11-10T04:20:19.948Z,146.10
2018-11-10T04:21:19.961Z,147.00
2018-11-10T04:22:19.973Z,144.30
2018-11-10T04:23:19.985Z,137.10
2018-11-10T04:24:19.999Z,156.40
2018-11-10T04:25:20.013Z,140.60
2018-11-10T04:26:20.025Z,139.00
2018-11-10T04:27:20.039Z,154.60
2018-11-10T04:28:20.052Z,172.20
2018-11-10T04:29:20.066Z,151.30
2018-11-10T04:30:20.080Z,164.10
2018-11-10T04:31:20.107Z,145.00
2018-11-10T04:32:20.108Z,153.20
2018-11-10T04:33:20.120Z,139.20
2018-11-10T04:34:20.134Z,143.40
2018-11-10T04:35:20.147Z,146.00
2018-11-10T04:36:20.161Z,144.30
2018-11-10T04:37:20.173Z,151.00
2018-11-10T04:38:20.199Z,146.30
2018-11-10T04:39:20.202Z,131.20
2018-11-10T04:40:20.231Z,153.30
2018-11-10T04:41:20.231Z,148.50
2018-11-10T04:42:20.255Z,137.60
2018-11-10T04:43:20.272Z,153.80
2018-11-10T04:44:20.294Z,140.00
2018-11-10T04:45:20.296Z,156.60
2018-11-10T04:46:20.307Z,143.80
2018-11-10T04:47:20.322Z,129.60
2018-11-10T04:48:20.336Z,142.60
2018-11-10T04:49:20.349Z,127.10
2018-11-10T04:50:20.362Z,130.40
2018-11-10T04:51:20.376Z,150.40
2018-11-10T04:52:20.389Z,160.10
2018-11-10T04:53:20.404Z,138.40
2018-11-10T04:54:20.417Z,129.40
2018-11-10T04:55:20.430Z,134.60
2018-11-10T04:56:20.444Z,149.00
2018-11-10T04:57:20.461Z,140.20
2018-11-10T04:58:20.488Z,142.30
2018-11-10T04:59:20.486Z,148.00
2018-11-10T05:00:20.499Z,127.30
2018-11-10T05:01:20.552Z,133.10
2018-11-10T05:02:20.539Z,143.50
2018-11-10T05:03:20.551Z,155.20
2018-11-10T05:04:20.566Z,132.60
2018-11-10T05:05:20.578Z,124.80
2018-11-10T05:06:20.592Z,136.30
2018-11-10T05:07:20.606Z,139.00
2018-11-10T05:08:20.619Z,133.90
2018-11-10T05:09:20.635Z,146.60
2018-11-10T05:10:20.646Z,125.80
2018-11-10T05:11:20.671Z,118.20
2018-11-10T05:12:20.673Z,156.40
2018-11-10T05:13:20.687Z,149.20
2018-11-10T05:14:20.702Z,125.50
2018-11-10T05:15:20.714Z,136.70
2018-11-10T05:16:20.728Z,136.60
2018-11-10T05:17:20.740Z,140.70
2018-11-10T05:18:20.769Z,152.00
2018-11-10T05:19:20.780Z,126.10
2018-11-10T05:20:20.807Z,132.50
2018-11-10T05:21:20.808Z,131.90
2018-11-10T05:22:20.820Z,162.20
2018-11-10T05:23:20.834Z,138.40
2018-11-10T05:24:20.847Z,141.00
2018-11-10T05:25:20.862Z,141.60
2018-11-10T05:26:20.875Z,132.90
2018-11-10T05:27:20.889Z,128.60
2018-11-10T05:28:20.904Z,111.30
2018-11-10T05:29:20.916Z,124.80
2018-11-10T05:30:20.929Z,130.60
2018-11-10T05:31:21.025Z,133.30
2018-11-10T05:32:20.969Z,144.70
2018-11-10T05:33:20.984Z,134.40
2018-11-10T05:34:20.996Z,134.50
2018-11-10T05:35:21.009Z,122.60
2018-11-10T05:36:21.023Z,141.20
2018-11-10T05:37:21.035Z,127.00
2018-11-10T05:38:21.050Z,136.70
2018-11-10T05:39:21.065Z,133.90
2018-11-10T05:40:21.078Z,119.30
2018-11-10T05:41:21.090Z,138.20
2018-11-10T05:42:21.106Z,160.00
2018-11-10T05:43:21.117Z,147.40
2018-11-10T05:44:21.143Z,137.30
2018-11-10T05:45:21.147Z,134.30
2018-11-10T05:46:21.183Z,129.30
2018-11-10T05:47:21.184Z,139.40
2018-11-10T05:48:21.197Z,139.20
2018-11-10T05:49:21.211Z,145.50
2018-11-10T05:50:21.248Z,139.50
2018-11-10T05:51:21.239Z,147.20
2018-11-10T05:52:21.251Z,138.00
2018-11-10T05:53:21.266Z,127.80
2018-11-10T05:54:21.279Z,139.90
2018-11-10T05:55:21.292Z,118.60
2018-11-10T05:56:21.306Z,121.90
2018-11-10T05:57:21.395Z,140.50
2018-11-10T05:58:21.337Z,124.90
2018-11-10T05:59:21.371Z,147.70
2018-11-10T06:00:21.373Z,129.50
2018-11-10T06:01:21.385Z,129.10
2018-11-10T06:02:21.400Z,131.10
2018-11-10T06:03:21.440Z,116.80
2018-11-10T06:04:21.428Z,129.10
2018-11-10T06:05:21.439Z,136.80
2018-11-10T06:06:21.455Z,125.50
2018-11-10T06:07:21.467Z,131.40
2018-11-10T06:08:21.480Z,126.50
2018-11-10T06:09:21.561Z,126.90
2018-11-10T06:10:21.672Z,124.40
2018-11-10T06:11:21.535Z,149.60
2018-11-10T06:12:21.560Z,125.00
2018-11-10T06:13:21.561Z,125.90
2018-11-10T06:14:21.578Z,148.60
2018-11-10T06:15:21.589Z,122.20
2018-11-10T06:16:21.610Z,121.90
2018-11-10T06:17:21.620Z,116.60
2018-11-10T06:18:21.628Z,127.10
2018-11-10T06:19:21.646Z,132.00
2018-11-10T06:20:21.669Z,131.10
2018-11-10T06:21:21.670Z,126.20
2018-11-10T06:22:21.683Z,133.30
2018-11-10T06:23:21.709Z,138.70
2018-11-10T06:24:21.723Z,124.60
2018-11-10T06:25:21.748Z,143.30
2018-11-10T06:26:21.751Z,139.20
2018-11-10T06:27:21.762Z,140.60
2018-11-10T06:28:21.780Z,137.60
2018-11-10T06:29:21.789Z,128.10
2018-11-10T06:30:21.804Z,131.80
2018-11-10T06:31:21.816Z,135.70
2018-11-10T06:32:21.866Z,133.10
2018-11-10T06:33:21.844Z,126.10
2018-11-10T06:34:21.858Z,147.30
2018-11-10T06:35:21.884Z,145.20
2018-11-10T06:36:21.896Z,137.20
2018-11-10T06:37:21.912Z,137.50
2018-11-10T06:38:21.925Z,136.80
2018-11-10T06:39:21.938Z,124.00
2018-11-10T06:40:21.951Z,118.50
2018-11-10T06:41:21.984Z,135.80
2018-11-10T06:42:21.979Z,130.70
2018-11-10T06:43:21.998Z,141.60
2018-11-10T06:44:22.019Z,131.60
2018-11-10T06:45:22.031Z,136.40
2018-11-10T06:46:22.096Z,130.00
2018-11-10T06:47:22.059Z,134.80
2018-11-10T06:48:22.073Z,123.80
2018-11-10T06:49:22.086Z,133.50
2018-11-10T06:50:22.101Z,131.10
2018-11-10T06:51:22.112Z,126.50
2018-11-10T06:52:22.127Z,134.30
2018-11-10T06:53:22.139Z,116.80
2018-11-10T06:54:22.155Z,126.80
2018-11-10T06:55:22.180Z,129.20
2018-11-10T06:56:22.193Z,126.90
2018-11-10T06:57:22.207Z,129.80
2018-11-10T06:58:22.219Z,139.30
2018-11-10T06:59:22.235Z,127.20
2018-11-10T07:00:22.262Z,113.30
2018-11-10T07:01:22.262Z,133.30
2018-11-10T07:02:22.275Z,135.40
2018-11-10T07:03:22.343Z,137.50
2018-11-10T07:04:22.314Z,141.70
2018-11-10T07:05:22.328Z,125.80
2018-11-10T07:06:22.340Z,130.80
2018-11-10T07:07:22.355Z,131.80
2018-11-10T07:08:22.371Z,135.60
2018-11-10T07:09:22.388Z,129.70
2018-11-10T07:10:22.396Z,120.10
2018-11-10T07:11:22.409Z,131.50
2018-11-10T07:12:22.434Z,122.00
2018-11-10T07:13:22.448Z,127.80
2018-11-10T07:14:22.461Z,128.70
2018-11-10T07:15:22.476Z,123.60
2018-11-10T07:16:22.488Z,138.30
2018-11-10T07:17:22.561Z,131.70
2018-11-10T07:18:22.519Z,133.40
2018-11-10T07:19:22.530Z,140.70
2018-11-10T07:20:22.556Z,125.20
2018-11-10T07:21:22.568Z,131.50
2018-11-10T07:22:22.584Z,127.10
2018-11-10T07:23:22.596Z,133.10
2018-11-10T07:24:22.609Z,128.60
2018-11-10T07:25:22.625Z,131.40
2018-11-10T07:26:22.637Z,115.80
2018-11-10T07:27:22.663Z,147.20
2018-11-10T07:28:22.675Z,131.40
2018-11-10T07:29:22.689Z,139.80
2018-11-10T07:30:22.716Z,149.80
2018-11-10T07:31:22.718Z,150.10
2018-11-10T07:32:22.734Z,134.90
2018-11-10T07:33:22.756Z,135.30
2018-11-10T07:34:22.756Z,131.20
2018-11-10T07:35:22.770Z,140.80
2018-11-10T07:36:22.797Z,129.80
2018-11-10T07:37:22.854Z,152.40
2018-11-10T07:38:22.824Z,135.50
2018-11-10T07:39:22.850Z,124.50
2018-11-10T07:40:22.850Z,128.80
2018-11-10T07:41:22.864Z,141.10
2018-11-10T07:42:22.877Z,131.90
2018-11-10T07:43:22.892Z,136.60
2018-11-10T07:44:22.917Z,158.40
2018-11-10T07:45:22.932Z,145.10
2018-11-10T07:46:22.943Z,158.90
2018-11-10T07:47:22.958Z,137.10
2018-11-10T07:48:22.972Z,145.60
2018-11-10T07:49:23.006Z,151.80
2018-11-10T07:50:22.999Z,144.80
2018-11-10T07:51:23.096Z,147.90
2018-11-10T07:52:23.039Z,142.80
2018-11-10T07:53:23.051Z,147.50
2018-11-10T07:54:23.078Z,143.80
2018-11-10T07:55:23.079Z,143.60
2018-11-10T07:56:23.092Z,135.40
2018-11-10T07:57:23.121Z,151.30
2018-11-10T07:58:23.132Z,145.90
2018-11-10T07:59:23.146Z,136.50
2018-11-10T08:00:23.160Z,142.90
2018-11-10T08:01:23.174Z,143.10
2018-11-10T08:02:23.188Z,146.70
2018-11-10T08:03:23.211Z,159.60
2018-11-10T08:04:23.294Z,147.70
2018-11-10T08:05:23.238Z,147.70
2018-11-10T08:06:23.254Z,144.30
2018-11-10T08:07:23.267Z,145.40
2018-11-10T08:08:23.293Z,151.90
2018-11-10T08:09:23.307Z,163.40
2018-11-10T08:10:23.319Z,155.50
2018-11-10T08:11:23.333Z,138.90
2018-11-10T08:12:23.359Z,143.40
2018-11-10T08:13:23.359Z,156.30
2018-11-10T08:14:23.386Z,156.40
2018-11-10T08:15:23.400Z,150.50
2018-11-10T08:16:23.413Z,150.80
2018-11-10T08:17:23.426Z,172.30
2018-11-10T08:18:23.454Z,153.20
2018-11-10T08:19:23.467Z,146.50
2018-11-10T08:20:23.483Z,154.70
2018-11-10T08:21:23.495Z,147.50
2018-11-10T08:22:23.506Z,153.10
2018-11-10T08:23:23.521Z,150.90
2018-11-10T08:24:23.546Z,144.10
2018-11-10T08:25:23.559Z,145.20
2018-11-10T08:26:23.573Z,152.70
2018-11-10T08:27:23.588Z,137.40
2018-11-10T08:28:23.600Z,143.50
2018-11-10T08:29:23.627Z,154.40
2018-11-10T08:30:23.652Z,138.90
2018-11-10T08:31:23.708Z,150.30
2018-11-10T08:32:23.667Z,145.30
2018-11-10T08:33:23.681Z,143.70
2018-11-10T08:34:23.707Z,140.40
2018-11-10T08:35:23.720Z,155.80
2018-11-10T08:36:23.734Z,141.00
2018-11-10T08:37:23.747Z,155.60
2018-11-10T08:38:23.774Z,144.60
2018-11-10T08:39:23.838Z,158.10
2018-11-10T08:40:23.800Z,145.10
2018-11-10T08:41:23.815Z,138.20
2018-11-10T08:42:23.827Z,145.70
2018-11-10T08:43:23.852Z,147.40
2018-11-10T08:44:23.869Z,143.90
2018-11-10T08:45:23.893Z,148.70
2018-11-10T08:46:23.894Z,129.40
2018-11-10T08:47:23.921Z,152.30
2018-11-10T08:48:23.935Z,149.80
2018-11-10T08:49:23.979Z,138.10
2018-11-10T08:50:23.959Z,143.20
2018-11-10T08:51:23.986Z,137.90
2018-11-10T08:52:24.000Z,137.70
2018-11-10T08:53:24.019Z,142.20
2018-11-10T08:54:24.029Z,152.10
2018-11-10T08:55:24.054Z,154.50
2018-11-10T08:56:24.067Z,145.00
2018-11-10T08:57:24.119Z,134.40
2018-11-10T08:58:24.095Z,129.20
2018-11-10T08:59:24.119Z,129.70
2018-11-10T09:00:24.134Z,133.40
2018-11-10T09:01:24.149Z,134.20
2018-11-10T09:02:24.162Z,123.30
2018-11-10T09:03:24.190Z,133.70
2018-11-10T09:04:24.212Z,128.80
2018-11-10T09:05:24.213Z,134.20
2018-11-10T09:06:24.226Z,122.30
2018-11-10T09:07:24.252Z,129.30
2018-11-10T09:08:24.266Z,117.00
2018-11-10T09:09:24.280Z,105.30
2018-11-10T09:10:24.294Z,119.00
2018-11-10T09:11:24.319Z,126.80
2018-11-10T09:12:24.333Z,103.90
2018-11-10T09:13:24.350Z,106.10
2018-11-10T09:14:24.409Z,120.40
2018-11-10T09:15:24.385Z,120.20
2018-11-10T09:16:24.400Z,117.60
2018-11-10T09:17:24.412Z,115.50
2018-11-10T09:18:24.438Z,117.50
2018-11-10T09:19:24.454Z,108.30
2018-11-10T09:20:24.468Z,101.00
2018-11-10T09:21:24.573Z,107.00
2018-11-10T09:22:24.506Z,113.50
2018-11-10T09:23:24.520Z,110.40
2018-11-10T09:24:24.533Z,101.70
2018-11-10T09:25:24.559Z,100.50
2018-11-10T09:26:24.572Z,104.10
2018-11-10T09:27:24.589Z,103.80
2018-11-10T09:28:24.615Z,102.00
2018-11-10T09:29:24.649Z,97.10
2018-11-10T09:30:24.640Z,94.00
2018-11-10T09:31:24.665Z,86.90
2018-11-10T09:32:24.690Z,90.80
2018-11-10T09:33:24.692Z,79.90
2018-11-10T09:34:24.707Z,83.20
2018-11-10T09:35:24.737Z,84.70
2018-11-10T09:36:24.766Z,83.30
2018-11-10T09:37:24.759Z,86.30
2018-11-10T09:38:24.785Z,75.50
2018-11-10T09:39:24.799Z,78.20
2018-11-10T09:40:24.812Z,78.50
2018-11-10T09:41:24.839Z,74.60
2018-11-10T09:42:24.974Z,71.60
2018-11-10T09:43:24.865Z,71.90
2018-11-10T09:44:24.891Z,65.90
2018-11-10T09:45:24.905Z,65.60
2018-11-10T09:46:24.918Z,69.50
2018-11-10T09:47:24.944Z,68.00
2018-11-10T09:48:24.958Z,65.40
2018-11-10T09:49:24.970Z,64.60
2018-11-10T09:50:24.997Z,66.30
2018-11-10T09:51:25.014Z,67.60
2018-11-10T09:52:25.038Z,68.40
2018-11-10T09:53:25.050Z,62.20
2018-11-10T09:54:25.065Z,65.50
2018-11-10T09:55:25.078Z,64.20
2018-11-10T09:56:25.103Z,63.40
2018-11-10T09:57:25.117Z,64.20
2018-11-10T09:58:25.134Z,68.70
2018-11-10T09:59:25.169Z,59.90
2018-11-10T10:00:25.171Z,61.90
2018-11-10T10:01:25.365Z,67.00
2018-11-10T10:02:25.561Z,61.20
2018-11-10T10:03:25.224Z,64.90
2018-11-10T10:04:25.251Z,62.00
2018-11-10T10:05:25.264Z,60.30
2018-11-10T10:06:25.276Z,61.70
2018-11-10T10:07:25.303Z,57.30
2018-11-10T10:08:25.317Z,58.20
2018-11-10T10:09:25.330Z,58.50
2018-11-10T10:10:25.356Z,55.10
2018-11-10T10:11:25.368Z,56.10
2018-11-10T10:12:25.383Z,58.00
2018-11-10T10:13:25.409Z,57.90
2018-11-10T10:14:25.423Z,59.40
2018-11-10T10:15:25.437Z,55.60
2018-11-10T10:16:25.545Z,56.00
2018-11-10T10:17:25.475Z,55.40
2018-11-10T10:18:25.489Z,57.90
2018-11-10T10:19:25.515Z,52.80
2018-11-10T10:20:25.541Z,56.90
2018-11-10T10:21:25.546Z,58.80
2018-11-10T10:22:25.569Z,56.30
2018-11-10T10:23:25.581Z,55.10
2018-11-10T10:24:25.608Z,52.80
2018-11-10T10:25:25.621Z,57.00
2018-11-10T10:26:25.646Z,56.80
2018-11-10T10:27:25.660Z,56.00
2018-11-10T10:28:25.731Z,54.70
2018-11-10T10:29:25.688Z,55.80
2018-11-10T10:30:25.713Z,54.70
2018-11-10T10:31:25.732Z,53.80
2018-11-10T10:32:25.742Z,56.30
2018-11-10T10:33:25.766Z,53.40
2018-11-10T10:34:25.868Z,58.20
2018-11-10T10:35:25.956Z,53.20
2018-11-10T10:36:25.821Z,54.80
2018-11-10T10:37:25.833Z,55.70
2018-11-10T10:38:25.847Z,52.30
2018-11-10T10:39:25.872Z,55.60
2018-11-10T10:40:25.886Z,55.80
2018-11-10T10:41:25.900Z,56.90
2018-11-10T10:42:25.925Z,50.70
2018-11-10T10:43:25.944Z,61.90
2018-11-10T10:44:25.952Z,53.80
2018-11-10T10:45:25.978Z,59.10
2018-11-10T10:46:25.993Z,56.60
2018-11-10T10:47:26.006Z,55.20
2018-11-10T10:48:26.098Z,52.10
2018-11-10T10:49:26.047Z,57.00
2018-11-10T10:50:26.059Z,53.20
2018-11-10T10:51:26.073Z,52.40
2018-11-10T10:52:26.099Z,55.80
2018-11-10T10:53:26.124Z,54.50
2018-11-10T10:54:26.125Z,51.70
2018-11-10T10:55:26.151Z,54.00
2018-11-10T10:56:26.184Z,55.00
2018-11-10T10:57:26.178Z,55.00
2018-11-10T10:58:26.206Z,50.80
2018-11-10T10:59:26.219Z,55.00
2018-11-10T11:00:26.231Z,49.90
2018-11-10T11:01:26.246Z,49.60
2018-11-10T11:02:26.272Z,50.70
2018-11-10T11:03:26.356Z,51.50
2018-11-10T11:04:26.311Z,48.10
2018-11-10T11:05:26.324Z,48.20
2018-11-10T11:06:26.338Z,45.80
2018-11-10T11:07:26.357Z,45.80
2018-11-10T11:08:26.378Z,46.60
2018-11-10T11:09:26.409Z,46.60
2018-11-10T11:10:26.404Z,49.60
2018-11-10T11:11:26.430Z,47.60
2018-11-10T11:12:26.446Z,44.70
2018-11-10T11:13:26.471Z,44.40
2018-11-10T11:14:26.483Z,41.70
2018-11-10T11:15:26.679Z,46.20
2018-11-10T11:16:26.524Z,43.60
2018-11-10T11:17:26.538Z,39.70
2018-11-10T11:18:26.551Z,44.10
2018-11-10T11:19:26.578Z,45.40
2018-11-10T11:20:26.602Z,45.90
2018-11-10T11:21:26.603Z,47.70
2018-11-10T11:22:26.630Z,44.10
2018-11-10T11:23:26.642Z,41.80
2018-11-10T11:24:26.657Z,41.60
2018-11-10T11:25:26.683Z,44.00
2018-11-10T11:26:26.698Z,44.20
2018-11-10T11:27:26.709Z,41.80
2018-11-10T11:28:26.736Z,43.50
2018-11-10T11:29:26.855Z,39.60
2018-11-10T11:30:26.775Z,43.00
2018-11-10T11:31:26.790Z,47.80
2018-11-10T11:32:26.807Z,41.30
2018-11-10T11:33:26.828Z,44.10
2018-11-10T11:34:26.842Z,41.70
2018-11-10T11:35:26.905Z,40.20
2018-11-10T11:36:26.881Z,45.10
2018-11-10T11:37:26.897Z,41.60
2018-11-10T11:38:26.921Z,43.00
2018-11-10T11:39:26.947Z,40.40
2018-11-10T11:40:26.948Z,42.30
2018-11-10T11:41:27.076Z,41.70
2018-11-10T11:42:26.987Z,40.70
2018-11-10T11:43:27.001Z,43.50
2018-11-10T11:44:27.029Z,41.00
2018-11-10T11:45:27.042Z,41.10
2018-11-10T11:46:27.054Z,41.10
2018-11-10T11:47:27.081Z,44.30
2018-11-10T11:48:27.093Z,38.20
2018-11-10T11:49:27.119Z,39.80
2018-11-10T11:50:27.134Z,40.00
2018-11-10T11:51:27.146Z,41.40
2018-11-10T11:52:27.172Z,39.10
2018-11-10T11:53:27.186Z,39.00
2018-11-10T11:54:27.201Z,37.80
2018-11-10T11:55:27.225Z,38.90
2018-11-10T11:56:27.239Z,41.10
2018-11-10T11:57:27.264Z,41.00
2018-11-10T11:58:27.417Z,41.80
2018-11-10T11:59:27.293Z,42.00
2018-11-10T12:00:27.315Z,39.40
2018-11-10T12:01:27.332Z,44.40
2018-11-10T12:02:27.345Z,40.90
2018-11-10T12:03:27.372Z,39.40
2018-11-10T12:04:27.407Z,44.30
2018-11-10T12:05:27.399Z,39.10
2018-11-10T12:06:27.424Z,42.90
2018-11-10T12:07:27.438Z,35.80
2018-11-10T12:08:27.457Z,37.40
2018-11-10T12:09:27.478Z,43.60
2018-11-10T12:10:27.490Z,39.90
2018-11-10T12:11:27.506Z,41.80
2018-11-10T12:12:27.531Z,40.20
2018-11-10T12:13:27.557Z,37.00
2018-11-10T12:14:27.570Z,40.10
2018-11-10T12:15:27.647Z,38.60
2018-11-10T12:16:27.711Z,40.30
2018-11-10T12:17:27.623Z,39.60
2018-11-10T12:18:27.637Z,38.00
2018-11-10T12:19:27.650Z,40.00
2018-11-10T12:20:27.676Z,35.40
2018-11-10T12:21:27.690Z,35.40
2018-11-10T12:22:27.704Z,34.90
2018-11-10T12:23:27.729Z,35.40
2018-11-10T12:24:27.743Z,36.20
2018-11-10T12:25:27.757Z,36.30
2018-11-10T12:26:27.783Z,35.20
2018-11-10T12:27:27.807Z,35.30
2018-11-10T12:28:27.822Z,35.10
2018-11-10T12:29:27.835Z,36.40
2018-11-10T12:30:27.849Z,36.90
2018-11-10T12:31:27.879Z,38.40
2018-11-10T12:32:27.889Z,33.30
2018-11-10T12:33:27.911Z,43.40
2018-11-10T12:34:27.930Z,39.30